createdAt,value
2022-11-15T00:02:40.749Z,8.85
2022-11-15T00:05:27.696Z,8.91
2022-11-15T00:08:14.460Z,8.96
2022-11-15T00:11:02.446Z,9.09
2022-11-15T00:13:49.103Z,9.17
2022-11-15T00:16:36.999Z,9.39
2022-11-15T00:19:23.666Z,9.17
2022-11-15T00:22:10.354Z,9.06
2022-11-15T00:24:57.001Z,9.02
2022-11-15T00:27:43.586Z,8.44
2022-11-15T00:30:30.397Z,8.95
2022-11-15T00:33:18.499Z,8.54
2022-11-15T00:36:06.042Z,8.77
2022-11-15T00:38:52.437Z,8.77
2022-11-15T00:41:39.196Z,9.04
2022-11-15T00:44:25.824Z,9.14
2022-11-15T00:47:12.524Z,9.39
2022-11-15T00:50:00.977Z,9.38
2022-11-15T00:52:47.297Z,9.63
2022-11-15T00:55:34.096Z,9.57
2022-11-15T00:58:20.633Z,9.51
2022-11-15T01:01:08.165Z,9.29
2022-11-15T01:03:59.976Z,9.42
2022-11-15T01:06:49.166Z,9.00
2022-11-15T01:09:35.417Z,8.95
2022-11-15T01:12:22.213Z,9.05
2022-11-15T01:15:09.203Z,9.23
2022-11-15T01:17:55.999Z,9.06
2022-11-15T01:20:43.670Z,8.92
2022-11-15T01:23:31.843Z,8.98
2022-11-15T01:26:18.652Z,8.85
2022-11-15T01:29:05.373Z,9.25
2022-11-15T01:31:52.040Z,9.35
2022-11-15T01:34:38.578Z,9.39
2022-11-15T01:37:25.477Z,9.35
2022-11-15T01:40:13.817Z,9.18
2022-11-15T01:43:00.122Z,9.61
2022-11-15T01:45:48.630Z,9.28
2022-11-15T01:48:36.101Z,9.46
2022-11-15T01:51:25.590Z,9.67
2022-11-15T01:54:14.989Z,9.37
2022-11-15T01:57:05.463Z,9.88
2022-11-15T01:59:52.516Z,9.55
2022-11-15T02:02:40.155Z,9.51
2022-11-15T02:05:26.937Z,9.94
2022-11-15T02:08:20.770Z,9.69
2022-11-15T02:11:09.445Z,9.81
2022-11-15T02:13:58.059Z,10.03
2022-11-15T02:16:49.604Z,9.93
2022-11-15T02:19:50.302Z,9.77
2022-11-15T02:22:41.979Z,9.60
2022-11-15T02:25:38.724Z,9.33
2022-11-15T02:28:40.303Z,9.51
2022-11-15T02:31:30.383Z,10.09
2022-11-15T02:34:21.693Z,10.19
2022-11-15T02:37:13.930Z,9.60
2022-11-15T02:40:04.465Z,9.85
2022-11-15T02:43:18.421Z,9.84
2022-11-15T02:46:09.666Z,9.78
2022-11-15T02:48:57.315Z,10.10
2022-11-15T02:51:45.421Z,9.54
2022-11-15T02:54:33.092Z,9.95
2022-11-15T02:57:21.847Z,10.12
2022-11-15T03:00:09.528Z,10.41
2022-11-15T03:03:07.908Z,10.26
2022-11-15T03:06:00.534Z,10.38
2022-11-15T03:08:52.886Z,10.18
2022-11-15T03:11:41.942Z,9.70
2022-11-15T03:14:31.804Z,10.03
2022-11-15T03:17:21.191Z,9.77
2022-11-15T03:20:09.085Z,9.77
2022-11-15T03:22:58.826Z,9.88
2022-11-15T03:25:46.912Z,9.76
2022-11-15T03:28:35.375Z,9.87
2022-11-15T03:31:47.045Z,9.78
2022-11-15T03:34:39.098Z,9.49
2022-11-15T03:37:28.410Z,9.75
2022-11-15T03:40:16.379Z,9.86
2022-11-15T03:43:06.810Z,10.13
2022-11-15T03:45:55.528Z,9.59
2022-11-15T03:48:46.124Z,9.80
2022-11-15T03:51:32.757Z,9.78
2022-11-15T03:54:19.102Z,9.52
2022-11-15T03:57:07.199Z,9.62
2022-11-15T03:59:53.697Z,9.69
2022-11-15T04:02:40.402Z,9.21
2022-11-15T04:05:27.035Z,9.40
2022-11-15T04:08:13.677Z,9.03
2022-11-15T04:11:02.420Z,9.72
2022-11-15T04:13:50.343Z,9.65
2022-11-15T04:16:42.460Z,9.84
2022-11-15T04:19:47.712Z,9.88
2022-11-15T04:22:52.143Z,9.99
2022-11-15T04:25:38.906Z,10.08
2022-11-15T04:28:25.406Z,10.08
2022-11-15T04:31:13.422Z,9.92
2022-11-15T04:34:00.212Z,9.92
2022-11-15T04:37:03.811Z,10.21
2022-11-15T04:39:50.306Z,10.27
2022-11-15T04:42:36.785Z,9.67
2022-11-15T04:45:23.506Z,9.51
2022-11-15T04:48:11.476Z,10.15
2022-11-15T04:50:57.810Z,9.73
2022-11-15T04:53:44.384Z,9.57
2022-11-15T04:56:30.867Z,9.93
2022-11-15T04:59:17.482Z,10.21
2022-11-15T05:02:04.263Z,10.14
2022-11-15T05:04:51.094Z,10.22
2022-11-15T05:07:37.787Z,10.51
2022-11-15T05:10:24.339Z,10.28
2022-11-15T05:13:10.913Z,10.25
2022-11-15T05:15:57.675Z,10.10
2022-11-15T05:18:44.529Z,10.38
2022-11-15T05:21:32.373Z,9.99
2022-11-15T05:24:19.080Z,10.31
2022-11-15T05:27:05.818Z,10.15
2022-11-15T05:29:52.508Z,10.21
2022-11-15T05:32:39.112Z,10.20
2022-11-15T05:35:31.677Z,9.99
2022-11-15T05:38:19.601Z,10.06
2022-11-15T05:41:06.941Z,9.93
2022-11-15T05:43:53.629Z,10.23
2022-11-15T05:46:41.207Z,9.73
2022-11-15T05:49:32.100Z,9.43
2022-11-15T05:52:20.725Z,9.21
2022-11-15T05:55:10.638Z,9.05
2022-11-15T05:57:57.072Z,9.52
2022-11-15T06:00:44.198Z,9.51
2022-11-15T06:03:31.559Z,9.34
2022-11-15T06:06:18.680Z,10.04
2022-11-15T06:09:05.393Z,9.92
2022-11-15T06:11:53.558Z,10.03
2022-11-15T06:14:41.338Z,10.07
2022-11-15T06:17:28.150Z,10.46
2022-11-15T06:20:14.847Z,10.07
2022-11-15T06:23:03.895Z,9.97
2022-11-15T06:25:50.746Z,10.31
2022-11-15T06:28:38.663Z,10.53
2022-11-15T06:31:25.544Z,10.43
2022-11-15T06:34:12.539Z,10.59
2022-11-15T06:36:59.350Z,10.50
2022-11-15T06:39:46.057Z,10.64
2022-11-15T06:42:32.810Z,10.68
2022-11-15T06:45:20.884Z,10.69
2022-11-15T06:48:08.004Z,10.70
2022-11-15T06:50:55.519Z,10.46
2022-11-15T06:53:42.070Z,10.50
2022-11-15T06:56:28.880Z,10.54
2022-11-15T06:59:15.642Z,10.22
2022-11-15T07:02:03.757Z,10.19
2022-11-15T07:04:50.754Z,10.31
2022-11-15T07:07:37.517Z,10.31
2022-11-15T07:10:26.416Z,10.79
2022-11-15T07:13:12.953Z,10.93
2022-11-15T07:15:59.638Z,11.13
2022-11-15T07:18:47.863Z,10.82
2022-11-15T07:21:34.894Z,10.76
2022-11-15T07:24:21.556Z,11.28
2022-11-15T07:27:08.138Z,11.12
2022-11-15T07:29:54.763Z,11.09
2022-11-15T07:32:41.426Z,11.26
2022-11-15T07:35:31.033Z,11.54
2022-11-15T07:38:20.443Z,11.16
2022-11-15T07:41:08.442Z,10.98
2022-11-15T07:43:55.431Z,11.54
2022-11-15T07:46:42.348Z,11.34
2022-11-15T07:49:29.110Z,11.22
2022-11-15T07:52:17.063Z,10.98
2022-11-15T07:55:03.786Z,10.93
2022-11-15T07:57:50.782Z,9.61
2022-11-15T08:00:38.736Z,9.80
2022-11-15T08:03:25.380Z,9.64
2022-11-15T08:06:12.128Z,9.67
2022-11-15T08:09:00.304Z,9.45
2022-11-15T08:11:46.927Z,9.56
2022-11-15T08:14:33.681Z,9.79
2022-11-15T08:17:20.491Z,10.25
2022-11-15T08:20:08.282Z,11.11
2022-11-15T08:22:55.000Z,10.69
2022-11-15T08:25:43.313Z,11.10
2022-11-15T08:28:29.984Z,10.31
2022-11-15T08:31:19.311Z,10.15
2022-11-15T08:34:06.391Z,10.49
2022-11-15T08:36:53.501Z,10.81
2022-11-15T08:39:40.111Z,10.34
2022-11-15T08:42:28.180Z,10.05
2022-11-15T08:45:15.094Z,10.00
2022-11-15T08:48:03.283Z,9.93
2022-11-15T08:50:49.819Z,10.00
2022-11-15T08:53:36.841Z,10.13
2022-11-15T08:56:23.564Z,10.28
2022-11-15T08:59:11.423Z,10.55
2022-11-15T09:01:58.228Z,10.63
2022-11-15T09:04:46.022Z,10.81
2022-11-15T09:07:33.287Z,10.90
2022-11-15T09:10:20.424Z,10.93
2022-11-15T09:13:07.217Z,11.96
2022-11-15T09:15:59.397Z,11.35
2022-11-15T09:18:46.029Z,12.26
2022-11-15T09:21:34.238Z,11.86
2022-11-15T09:24:21.849Z,12.39
2022-11-15T09:27:08.861Z,12.84
2022-11-15T09:29:55.660Z,12.02
2022-11-15T09:32:43.698Z,11.91
2022-11-15T09:35:30.237Z,11.58
2022-11-15T09:38:16.895Z,11.64
2022-11-15T09:41:21.791Z,11.46
2022-11-15T09:44:18.001Z,11.34
2022-11-15T09:47:17.791Z,11.62
2022-11-15T09:50:11.453Z,11.99
2022-11-15T09:52:41.419Z,11.97
2022-11-15T09:55:12.350Z,11.98
2022-11-15T09:57:42.597Z,11.94
2022-11-15T10:00:44.926Z,11.96
2022-11-15T10:03:11.014Z,11.98
2022-11-15T10:05:41.514Z,12.63
2022-11-15T10:08:15.575Z,12.89
2022-11-15T10:10:44.797Z,12.95
2022-11-15T10:13:15.369Z,12.87
2022-11-15T10:15:48.679Z,12.56
2022-11-15T10:18:19.179Z,12.31
2022-11-15T10:20:50.943Z,12.12
2022-11-15T10:23:20.493Z,11.93
2022-11-15T10:25:48.537Z,12.05
2022-11-15T10:28:17.851Z,12.13
2022-11-15T10:30:46.412Z,11.96
2022-11-15T10:33:18.832Z,12.17
2022-11-15T10:35:46.870Z,13.02
2022-11-15T10:38:16.534Z,12.13
2022-11-15T10:40:45.819Z,12.10
2022-11-15T10:43:18.254Z,12.02
2022-11-15T10:45:46.765Z,12.01
2022-11-15T10:48:27.429Z,11.99
2022-11-15T10:50:56.586Z,12.20
2022-11-15T10:53:32.690Z,12.36
2022-11-15T10:56:02.829Z,12.72
2022-11-15T10:58:34.586Z,12.59
2022-11-15T11:01:13.453Z,12.83
2022-11-15T11:03:42.722Z,13.05
2022-11-15T11:06:14.575Z,12.88
2022-11-15T11:08:55.538Z,13.24
2022-11-15T11:11:23.905Z,13.62
2022-11-15T11:13:54.468Z,13.37
2022-11-15T11:16:28.459Z,13.17
2022-11-15T11:19:03.928Z,12.98
2022-11-15T11:21:40.400Z,12.05
2022-11-15T11:24:14.784Z,12.30
2022-11-15T11:26:47.249Z,12.32
2022-11-15T11:29:23.077Z,12.35
2022-11-15T11:31:57.270Z,12.68
2022-11-15T11:34:32.285Z,12.65
2022-11-15T11:37:05.580Z,13.14
2022-11-15T11:39:42.475Z,13.85
2022-11-15T11:42:15.674Z,14.25
2022-11-15T11:44:49.854Z,14.15
2022-11-15T11:47:22.871Z,14.65
2022-11-15T11:49:52.330Z,14.86
2022-11-15T11:52:24.098Z,15.09
2022-11-15T11:54:57.260Z,15.16
2022-11-15T11:57:31.277Z,14.61
2022-11-15T12:00:02.742Z,14.27
2022-11-15T12:02:43.015Z,14.26
2022-11-15T12:05:13.917Z,13.99
2022-11-15T12:07:43.834Z,14.51
2022-11-15T12:10:21.346Z,14.55
2022-11-15T12:12:52.806Z,14.12
2022-11-15T12:15:22.842Z,14.24
2022-11-15T12:17:51.298Z,14.04
2022-11-15T12:20:20.805Z,13.87
2022-11-15T12:22:51.623Z,13.88
2022-11-15T12:25:23.062Z,13.77
2022-11-15T12:27:56.425Z,13.65
2022-11-15T12:30:25.500Z,13.37
2022-11-15T12:32:55.633Z,13.21
2022-11-15T12:35:26.196Z,13.16
2022-11-15T12:37:57.100Z,12.98
2022-11-15T12:40:36.957Z,12.98
2022-11-15T12:43:06.669Z,13.03
2022-11-15T12:45:37.690Z,12.90
2022-11-15T12:48:24.407Z,13.03
2022-11-15T12:50:55.843Z,12.84
2022-11-15T12:53:30.776Z,12.92
2022-11-15T12:56:22.756Z,13.06
2022-11-15T12:58:53.589Z,13.03
2022-11-15T13:01:36.775Z,12.96
2022-11-15T13:04:15.458Z,13.20
2022-11-15T13:06:45.062Z,13.60
2022-11-15T13:09:31.857Z,13.69
2022-11-15T13:12:02.992Z,13.74
2022-11-15T13:14:41.889Z,13.84
2022-11-15T13:17:18.360Z,13.91
2022-11-15T13:19:47.590Z,13.86
2022-11-15T13:22:33.022Z,13.69
2022-11-15T13:25:01.128Z,13.63
2022-11-15T13:27:29.381Z,13.72
2022-11-15T13:29:58.730Z,13.57
2022-11-15T13:32:26.901Z,13.57
2022-11-15T13:34:54.924Z,13.62
2022-11-15T13:37:33.354Z,13.43
2022-11-15T13:40:19.823Z,13.63
2022-11-15T13:42:47.965Z,13.96
2022-11-15T13:45:18.992Z,14.03
2022-11-15T13:47:52.747Z,14.17
2022-11-15T13:50:22.944Z,14.03
2022-11-15T13:52:51.355Z,14.39
2022-11-15T13:55:20.712Z,14.35
2022-11-15T13:57:50.274Z,14.86
2022-11-15T14:00:31.870Z,14.49
2022-11-15T14:03:07.717Z,14.40
2022-11-15T14:05:35.705Z,14.71
2022-11-15T14:08:05.125Z,14.81
2022-11-15T14:10:34.014Z,14.26
2022-11-15T14:13:03.498Z,14.51
2022-11-15T14:15:34.194Z,14.61
2022-11-15T14:18:02.606Z,14.63
2022-11-15T14:20:37.176Z,14.52
2022-11-15T14:23:06.626Z,14.25
2022-11-15T14:25:36.097Z,14.24
2022-11-15T14:28:16.210Z,14.30
2022-11-15T14:30:48.023Z,14.30
2022-11-15T14:33:21.005Z,14.56
2022-11-15T14:35:49.200Z,14.42
2022-11-15T14:38:17.150Z,14.03
2022-11-15T14:40:45.540Z,14.34
2022-11-15T14:43:13.841Z,14.10
2022-11-15T14:45:42.139Z,13.82
2022-11-15T14:48:11.493Z,13.95
2022-11-15T14:50:39.823Z,13.81
2022-11-15T14:53:13.615Z,13.72
2022-11-15T14:55:41.624Z,13.77
2022-11-15T14:58:10.082Z,13.76
2022-11-15T15:00:39.298Z,14.05
2022-11-15T15:03:07.830Z,14.29
2022-11-15T15:05:38.383Z,13.28
2022-11-15T15:08:07.106Z,13.67
2022-11-15T15:10:41.473Z,13.77
2022-11-15T15:13:17.605Z,14.04
2022-11-15T15:15:45.907Z,13.99
2022-11-15T15:18:14.118Z,14.01
2022-11-15T15:20:43.921Z,13.94
2022-11-15T15:23:16.869Z,13.58
2022-11-15T15:25:46.436Z,13.44
2022-11-15T15:28:14.890Z,13.69
2022-11-15T15:30:43.033Z,13.54
2022-11-15T15:33:11.081Z,13.64
2022-11-15T15:35:39.091Z,13.39
2022-11-15T15:38:08.501Z,13.46
2022-11-15T15:40:36.544Z,13.92
2022-11-15T15:43:09.822Z,13.60
2022-11-15T15:45:40.627Z,13.38
2022-11-15T15:48:12.441Z,13.49
2022-11-15T15:50:40.607Z,13.41
2022-11-15T15:53:11.278Z,13.33
2022-11-15T15:55:39.693Z,13.13
2022-11-15T15:58:09.076Z,13.12
2022-11-15T16:00:37.744Z,13.00
2022-11-15T16:03:05.875Z,12.92
2022-11-15T16:05:33.886Z,12.94
2022-11-15T16:08:01.870Z,13.07
2022-11-15T16:10:32.727Z,13.22
2022-11-15T16:13:00.709Z,13.13
2022-11-15T16:15:31.390Z,12.88
2022-11-15T16:18:00.806Z,13.26
2022-11-15T16:20:32.108Z,13.05
2022-11-15T16:23:05.725Z,12.92
2022-11-15T16:25:39.410Z,12.85
2022-11-15T16:28:10.069Z,12.97
2022-11-15T16:30:38.076Z,12.78
2022-11-15T16:33:06.118Z,12.91
2022-11-15T16:35:40.590Z,12.80
2022-11-15T16:38:15.109Z,12.85
2022-11-15T16:40:44.555Z,12.83
2022-11-15T16:43:12.932Z,12.73
2022-11-15T16:45:43.937Z,12.91
2022-11-15T16:48:16.988Z,12.95
2022-11-15T16:50:46.316Z,12.64
2022-11-15T16:53:14.325Z,12.73
2022-11-15T16:55:43.703Z,12.67
2022-11-15T16:58:11.674Z,12.76
2022-11-15T17:00:39.756Z,12.76
2022-11-15T17:03:07.991Z,13.00
2022-11-15T17:05:36.035Z,12.77
2022-11-15T17:08:04.030Z,12.65
2022-11-15T17:10:32.021Z,12.77
2022-11-15T17:13:01.521Z,12.82
2022-11-15T17:15:31.854Z,12.55
2022-11-15T17:18:00.633Z,12.55
2022-11-15T17:20:28.658Z,12.73
2022-11-15T17:22:57.033Z,12.80
2022-11-15T17:25:25.023Z,12.55
2022-11-15T17:27:53.283Z,12.93
2022-11-15T17:30:24.959Z,12.49
2022-11-15T17:32:52.978Z,12.44
2022-11-15T17:35:20.964Z,12.39
2022-11-15T17:37:49.085Z,12.38
2022-11-15T17:40:17.101Z,12.60
2022-11-15T17:42:45.099Z,13.09
2022-11-15T17:45:14.167Z,12.37
2022-11-15T17:47:43.521Z,12.35
2022-11-15T17:50:11.784Z,12.71
2022-11-15T17:52:39.768Z,12.58
2022-11-15T17:55:08.061Z,12.79
2022-11-15T17:57:36.043Z,12.55
2022-11-15T18:00:04.872Z,12.79
2022-11-15T18:02:32.943Z,12.33
2022-11-15T18:05:03.222Z,12.72
2022-11-15T18:07:31.263Z,12.48
2022-11-15T18:09:59.312Z,12.59
2022-11-15T18:12:27.360Z,12.71
2022-11-15T18:14:55.353Z,12.57
2022-11-15T18:17:23.813Z,12.68
2022-11-15T18:19:51.933Z,12.55
2022-11-15T18:22:22.022Z,12.77
2022-11-15T18:25:04.465Z,12.87
2022-11-15T18:27:35.500Z,12.87
2022-11-15T18:30:03.631Z,12.95
2022-11-15T18:32:32.824Z,12.95
2022-11-15T18:35:00.922Z,12.89
2022-11-15T18:37:33.879Z,12.52
2022-11-15T18:40:01.943Z,11.94
2022-11-15T18:42:36.284Z,12.21
2022-11-15T18:45:04.666Z,11.96
2022-11-15T18:47:32.707Z,12.12
2022-11-15T18:50:00.779Z,12.25
2022-11-15T18:52:30.499Z,12.23
2022-11-15T18:54:59.131Z,12.49
2022-11-15T18:57:27.164Z,12.52
2022-11-15T18:59:55.164Z,12.62
2022-11-15T19:02:23.192Z,12.55
2022-11-15T19:04:54.294Z,12.45
2022-11-15T19:07:25.324Z,12.45
2022-11-15T19:09:56.107Z,12.70
2022-11-15T19:12:24.338Z,12.67
2022-11-15T19:14:52.394Z,12.28
2022-11-15T19:17:20.392Z,12.38
2022-11-15T19:19:48.488Z,12.38
2022-11-15T19:22:16.572Z,12.04
2022-11-15T19:24:44.669Z,12.09
2022-11-15T19:27:14.052Z,12.09
2022-11-15T19:29:42.442Z,12.14
2022-11-15T19:32:10.541Z,12.33
2022-11-15T19:34:41.545Z,12.26
2022-11-15T19:37:09.567Z,12.25
2022-11-15T19:39:41.015Z,12.37
2022-11-15T19:42:19.267Z,12.56
2022-11-15T19:44:50.171Z,12.41
2022-11-15T19:47:18.208Z,12.21
2022-11-15T19:49:46.558Z,12.17
2022-11-15T19:52:14.595Z,12.24
2022-11-15T19:54:42.559Z,12.25
2022-11-15T19:57:10.765Z,12.68
2022-11-15T19:59:42.476Z,12.32
2022-11-15T20:02:12.600Z,12.41
2022-11-15T20:04:40.621Z,12.52
2022-11-15T20:07:10.508Z,12.54
2022-11-15T20:09:41.844Z,12.17
2022-11-15T20:12:10.045Z,12.26
2022-11-15T20:14:49.030Z,12.38
2022-11-15T20:17:17.253Z,12.49
2022-11-15T20:19:45.274Z,12.01
2022-11-15T20:22:15.408Z,12.11
2022-11-15T20:24:43.432Z,12.10
2022-11-15T20:27:14.091Z,12.18
2022-11-15T20:29:45.148Z,11.93
2022-11-15T20:32:15.849Z,11.97
2022-11-15T20:34:46.339Z,12.09
2022-11-15T20:37:17.387Z,12.54
2022-11-15T20:39:45.428Z,12.39
2022-11-15T20:42:13.676Z,12.09
2022-11-15T20:44:43.270Z,12.27
2022-11-15T20:47:11.385Z,12.53
2022-11-15T20:49:40.774Z,12.16
2022-11-15T20:52:08.774Z,12.43
2022-11-15T20:54:38.899Z,12.47
2022-11-15T20:57:09.966Z,12.00
2022-11-15T20:59:38.073Z,12.56
2022-11-15T21:02:06.268Z,12.24
2022-11-15T21:04:34.497Z,12.15
2022-11-15T21:07:06.284Z,12.24
2022-11-15T21:10:01.871Z,12.49
2022-11-15T21:12:33.141Z,12.02
2022-11-15T21:15:05.432Z,12.09
2022-11-15T21:17:33.510Z,12.23
2022-11-15T21:20:01.466Z,11.95
2022-11-15T21:22:31.230Z,11.93
2022-11-15T21:25:01.537Z,12.24
2022-11-15T21:27:29.638Z,12.32
2022-11-15T21:29:57.863Z,12.10
2022-11-15T21:32:25.903Z,12.18
2022-11-15T21:34:56.104Z,12.03
2022-11-15T21:37:26.432Z,11.90
2022-11-15T21:39:57.634Z,11.79
2022-11-15T21:42:25.678Z,11.95
2022-11-15T21:44:53.779Z,11.88
2022-11-15T21:47:21.866Z,12.07
2022-11-15T21:49:49.860Z,11.96
2022-11-15T21:52:22.662Z,11.74
2022-11-15T21:54:50.802Z,11.64
2022-11-15T21:57:26.751Z,11.82
2022-11-15T22:02:39.140Z,11.71
2022-11-15T22:05:07.864Z,11.82
2022-11-15T22:07:35.978Z,11.76
2022-11-15T22:10:04.486Z,11.43
2022-11-15T22:12:32.553Z,11.49
2022-11-15T22:15:00.521Z,11.96
2022-11-15T22:17:48.585Z,11.43
2022-11-15T22:23:06.819Z,11.46
2022-11-15T22:25:34.877Z,11.80
2022-11-15T22:28:02.989Z,11.67
2022-11-15T22:30:31.105Z,11.69
2022-11-15T22:32:59.236Z,11.08
2022-11-15T22:35:28.734Z,11.18
2022-11-15T22:37:56.844Z,11.70
2022-11-15T22:40:27.316Z,11.86
2022-11-15T22:42:55.488Z,11.19
2022-11-15T22:45:23.828Z,11.42
2022-11-15T22:47:51.893Z,11.45
2022-11-15T22:50:20.101Z,11.67
2022-11-15T22:52:49.818Z,11.71
2022-11-15T22:55:18.000Z,11.45
2022-11-15T22:57:46.247Z,11.50
2022-11-15T23:00:15.766Z,11.51
2022-11-15T23:02:43.851Z,11.38
2022-11-15T23:05:12.115Z,11.58
2022-11-15T23:07:40.227Z,11.56
2022-11-15T23:10:27.824Z,11.46
2022-11-15T23:13:13.937Z,11.23
2022-11-15T23:15:59.518Z,11.49
2022-11-15T23:18:28.684Z,11.10
2022-11-15T23:20:56.785Z,10.79
2022-11-15T23:23:23.988Z,10.98
2022-11-15T23:25:59.769Z,10.88
2022-11-15T23:28:30.567Z,10.71
2022-11-15T23:31:20.633Z,10.87
2022-11-15T23:34:00.751Z,10.60
2022-11-15T23:36:29.710Z,10.61
2022-11-15T23:38:59.840Z,10.82
2022-11-15T23:41:29.336Z,11.23
2022-11-15T23:43:57.408Z,11.30
2022-11-15T23:46:25.520Z,11.03
2022-11-15T23:48:53.791Z,11.41
2022-11-15T23:51:23.956Z,11.41
2022-11-15T23:53:52.094Z,11.34
2022-11-15T23:56:20.968Z,11.04
2022-11-15T23:58:50.462Z,11.07
